createdAt,value
2017-10-07T00:00:57.195Z,3.90
2017-10-07T00:02:09.062Z,4.55
2017-10-07T00:03:15.894Z,4.50
2017-10-07T00:04:22.877Z,4.95
2017-10-07T00:05:30.045Z,3.80
2017-10-07T00:06:42.735Z,4.45
2017-10-07T00:07:48.794Z,4.78
2017-10-07T00:08:54.965Z,4.20
2017-10-07T00:10:06.459Z,4.53
2017-10-07T00:11:12.641Z,4.82
2017-10-07T00:12:18.726Z,4.53
2017-10-07T00:13:28.445Z,4.40
2017-10-07T00:14:37.000Z,3.62
2017-10-07T00:15:45.252Z,3.80
2017-10-07T00:16:53.098Z,5.18
2017-10-07T00:17:59.548Z,4.55
2017-10-07T00:19:05.626Z,4.28
2017-10-07T00:20:21.998Z,3.90
2017-10-07T00:21:31.384Z,3.55
2017-10-07T00:22:50.099Z,4.18
2017-10-07T00:24:03.047Z,5.35
2017-10-07T00:25:14.835Z,4.18
2017-10-07T00:26:21.367Z,4.20
2017-10-07T00:27:28.351Z,4.03
2017-10-07T00:28:34.574Z,4.18
2017-10-07T00:29:40.698Z,4.47
2017-10-07T00:30:46.763Z,3.42
2017-10-07T00:31:52.870Z,3.10
2017-10-07T00:33:06.145Z,3.95
2017-10-07T00:34:24.880Z,3.85
2017-10-07T00:35:31.192Z,3.67
2017-10-07T00:36:36.991Z,3.58
2017-10-07T00:37:43.099Z,3.85
2017-10-07T00:38:49.162Z,3.25
2017-10-07T00:39:54.990Z,3.65
2017-10-07T00:41:12.316Z,3.53
2017-10-07T00:42:22.975Z,3.50
2017-10-07T00:43:28.669Z,3.12
2017-10-07T00:44:34.727Z,3.62
2017-10-07T00:45:42.089Z,3.85
2017-10-07T00:46:51.738Z,4.25
2017-10-07T00:48:14.333Z,3.83
2017-10-07T00:49:24.061Z,3.45
2017-10-07T00:50:30.128Z,3.50
2017-10-07T00:51:36.214Z,3.33
2017-10-07T00:52:41.948Z,4.03
2017-10-07T00:53:48.330Z,3.47
2017-10-07T00:54:54.074Z,3.80
2017-10-07T00:56:03.502Z,3.40
2017-10-07T00:57:16.902Z,4.87
2017-10-07T00:58:25.844Z,3.60
2017-10-07T00:59:42.362Z,2.87
2017-10-07T01:00:50.285Z,3.92
2017-10-07T01:01:54.751Z,3.30
2017-10-07T01:03:11.343Z,3.50
2017-10-07T01:04:17.428Z,3.67
2017-10-07T01:05:23.527Z,3.20
2017-10-07T01:06:29.394Z,3.55
2017-10-07T01:07:36.119Z,3.60
2017-10-07T01:08:43.206Z,3.03
2017-10-07T01:10:01.570Z,3.30
2017-10-07T01:11:08.326Z,3.67
2017-10-07T01:12:14.385Z,3.22
2017-10-07T01:13:21.828Z,3.75
2017-10-07T01:14:33.449Z,3.50
2017-10-07T01:15:44.096Z,3.42
2017-10-07T01:16:50.186Z,3.08
2017-10-07T01:17:57.034Z,3.53
2017-10-07T01:19:03.128Z,3.40
2017-10-07T01:20:08.524Z,3.75
2017-10-07T01:21:21.393Z,3.33
2017-10-07T01:22:35.521Z,3.53
2017-10-07T01:23:43.998Z,3.22
2017-10-07T01:24:49.393Z,3.22
2017-10-07T01:25:56.412Z,2.60
2017-10-07T01:27:04.512Z,3.22
2017-10-07T01:28:10.480Z,3.17
2017-10-07T01:29:17.637Z,2.80
2017-10-07T01:30:23.777Z,3.30
2017-10-07T01:31:30.969Z,3.28
2017-10-07T01:32:36.346Z,3.20
2017-10-07T01:33:42.803Z,3.92
2017-10-07T01:34:50.249Z,2.90
2017-10-07T01:35:55.992Z,3.55
2017-10-07T01:37:04.693Z,3.37
2017-10-07T01:38:10.076Z,2.67
2017-10-07T01:39:15.555Z,2.78
2017-10-07T01:40:22.822Z,2.50
2017-10-07T01:41:28.909Z,3.00
2017-10-07T01:42:34.632Z,3.10
2017-10-07T01:43:41.023Z,2.85
2017-10-07T01:44:54.898Z,2.87
2017-10-07T01:46:07.467Z,2.45
2017-10-07T01:47:15.753Z,3.30
2017-10-07T01:48:21.576Z,2.90
2017-10-07T01:49:27.986Z,2.90
2017-10-07T01:50:34.105Z,2.40
2017-10-07T01:51:45.720Z,3.17
2017-10-07T01:52:54.486Z,2.85
2017-10-07T01:54:00.987Z,3.45
2017-10-07T01:55:09.354Z,3.10
2017-10-07T01:56:27.938Z,2.90
2017-10-07T01:57:36.892Z,3.67
2017-10-07T01:58:43.479Z,3.40
2017-10-07T01:59:50.586Z,3.37
2017-10-07T02:01:03.017Z,3.67
2017-10-07T02:02:18.671Z,4.87
2017-10-07T02:03:24.830Z,2.50
2017-10-07T02:04:31.798Z,4.00
2017-10-07T02:05:45.958Z,3.05
2017-10-07T02:06:59.950Z,3.75
2017-10-07T02:08:06.235Z,3.37
2017-10-07T02:09:12.855Z,3.12
2017-10-07T02:10:22.778Z,3.62
2017-10-07T02:11:28.907Z,3.20
2017-10-07T02:12:35.009Z,3.12
2017-10-07T02:13:41.146Z,3.70
2017-10-07T02:14:57.099Z,3.08
2017-10-07T02:16:15.165Z,5.32
2017-10-07T02:17:22.050Z,4.72
2017-10-07T02:18:27.937Z,2.95
2017-10-07T02:19:42.008Z,3.03
2017-10-07T02:20:53.068Z,3.30
2017-10-07T02:22:00.827Z,3.08
2017-10-07T02:23:14.159Z,3.30
2017-10-07T02:24:21.984Z,3.35
2017-10-07T02:25:28.111Z,3.35
2017-10-07T02:26:34.218Z,4.00
2017-10-07T02:27:44.490Z,3.30
2017-10-07T02:28:50.566Z,3.75
2017-10-07T02:29:56.631Z,3.40
2017-10-07T02:31:05.682Z,5.60
2017-10-07T02:32:21.114Z,3.45
2017-10-07T02:33:37.948Z,3.30
2017-10-07T02:34:44.034Z,3.33
2017-10-07T02:35:55.112Z,3.42
2017-10-07T02:37:03.050Z,3.75
2017-10-07T02:38:09.159Z,2.85
2017-10-07T02:39:15.243Z,3.40
2017-10-07T02:40:22.199Z,3.47
2017-10-07T02:41:28.395Z,3.40
2017-10-07T02:42:34.090Z,3.45
2017-10-07T02:43:41.186Z,3.10
2017-10-07T02:44:48.606Z,2.47
2017-10-07T02:45:54.687Z,2.87
2017-10-07T02:47:00.811Z,3.00
2017-10-07T02:48:07.029Z,3.58
2017-10-07T02:49:13.320Z,3.78
2017-10-07T02:50:24.226Z,3.20
2017-10-07T02:51:34.958Z,2.75
2017-10-07T02:52:41.294Z,2.78
2017-10-07T02:53:47.401Z,2.80
2017-10-07T02:54:53.457Z,3.05
2017-10-07T02:55:59.586Z,3.80
2017-10-07T02:57:06.639Z,2.83
2017-10-07T02:58:13.019Z,2.97
2017-10-07T02:59:21.111Z,2.70
2017-10-07T03:00:29.798Z,3.15
2017-10-07T03:01:41.332Z,3.12
2017-10-07T03:02:55.301Z,2.83
2017-10-07T03:04:09.329Z,2.80
2017-10-07T03:05:23.325Z,3.08
2017-10-07T03:06:37.341Z,2.70
2017-10-07T03:07:51.351Z,3.50
2017-10-07T03:09:07.392Z,3.55
2017-10-07T03:10:24.419Z,3.50
2017-10-07T03:11:35.457Z,2.92
2017-10-07T03:12:41.520Z,2.87
2017-10-07T03:13:53.725Z,2.83
2017-10-07T03:14:59.846Z,3.05
2017-10-07T03:16:08.505Z,3.45
2017-10-07T03:17:19.573Z,4.05
2017-10-07T03:18:32.513Z,2.95
2017-10-07T03:19:45.363Z,2.87
2017-10-07T03:20:51.491Z,3.20
2017-10-07T03:21:58.663Z,2.70
2017-10-07T03:23:07.764Z,4.75
2017-10-07T03:24:13.835Z,2.90
2017-10-07T03:25:19.905Z,3.33
2017-10-07T03:26:26.848Z,3.03
2017-10-07T03:27:35.667Z,3.12
2017-10-07T03:28:53.630Z,3.60
2017-10-07T03:30:07.513Z,3.47
2017-10-07T03:31:13.672Z,2.95
2017-10-07T03:32:19.775Z,3.12
2017-10-07T03:33:25.690Z,3.83
2017-10-07T03:34:42.652Z,4.05
2017-10-07T03:35:56.822Z,3.33
2017-10-07T03:37:04.839Z,3.85
2017-10-07T03:38:13.615Z,3.50
2017-10-07T03:39:20.685Z,3.47
2017-10-07T03:40:27.316Z,3.65
2017-10-07T03:41:43.627Z,4.37
2017-10-07T03:42:51.450Z,3.33
2017-10-07T03:44:01.130Z,3.50
2017-10-07T03:45:10.040Z,3.33
2017-10-07T03:46:15.990Z,3.05
2017-10-07T03:47:22.066Z,4.10
2017-10-07T03:48:27.983Z,3.05
2017-10-07T03:49:34.101Z,3.47
2017-10-07T03:50:40.676Z,5.25
2017-10-07T03:51:48.070Z,3.37
2017-10-07T03:52:54.878Z,3.17
2017-10-07T03:54:01.787Z,3.20
2017-10-07T03:55:08.824Z,3.50
2017-10-07T03:57:44.545Z,3.55
2017-10-07T03:58:51.614Z,3.05
2017-10-07T04:00:03.834Z,3.03
2017-10-07T04:01:13.395Z,3.30
2017-10-07T04:02:19.475Z,2.75
2017-10-07T04:03:29.728Z,3.40
2017-10-07T04:04:36.270Z,3.97
2017-10-07T04:05:52.800Z,3.25
2017-10-07T04:07:07.757Z,3.42
2017-10-07T04:08:15.664Z,2.97
2017-10-07T04:09:21.753Z,4.47
2017-10-07T04:10:27.631Z,3.62
2017-10-07T04:11:42.026Z,4.50
2017-10-07T04:12:48.109Z,3.30
2017-10-07T04:13:59.010Z,2.92
2017-10-07T04:15:05.946Z,2.83
2017-10-07T04:16:12.074Z,3.47
2017-10-07T04:17:17.989Z,3.15
2017-10-07T04:18:24.123Z,3.22
2017-10-07T04:19:31.244Z,3.37
2017-10-07T04:20:39.382Z,3.75
2017-10-07T04:21:51.944Z,2.90
2017-10-07T04:23:04.099Z,3.95
2017-10-07T04:24:10.205Z,3.00
2017-10-07T04:25:17.050Z,3.47
2017-10-07T04:26:23.400Z,3.78
2017-10-07T04:27:34.544Z,3.25
2017-10-07T04:28:40.606Z,3.72
2017-10-07T04:29:48.185Z,3.37
2017-10-07T04:30:56.074Z,2.92
2017-10-07T04:32:02.483Z,3.47
2017-10-07T04:33:09.812Z,2.05
2017-10-07T04:34:16.604Z,2.70
2017-10-07T04:35:22.676Z,2.40
2017-10-07T04:36:28.819Z,3.50
2017-10-07T04:37:34.944Z,3.45
2017-10-07T04:38:47.168Z,3.62
2017-10-07T04:40:01.165Z,2.35
2017-10-07T04:41:15.139Z,3.05
2017-10-07T04:42:29.155Z,2.65
2017-10-07T04:43:40.079Z,3.55
2017-10-07T04:44:48.033Z,3.03
2017-10-07T04:45:54.657Z,2.78
2017-10-07T04:47:06.183Z,2.90
2017-10-07T04:48:18.145Z,2.58
2017-10-07T04:49:26.266Z,2.35
2017-10-07T04:50:39.307Z,2.65
2017-10-07T04:51:56.175Z,2.47
2017-10-07T04:53:02.908Z,2.17
2017-10-07T04:54:12.934Z,3.85
2017-10-07T04:55:20.100Z,2.67
2017-10-07T04:56:27.319Z,2.92
2017-10-07T04:57:33.401Z,3.00
2017-10-07T04:58:40.383Z,2.60
2017-10-07T04:59:50.268Z,2.35
2017-10-07T05:00:56.229Z,2.92
2017-10-07T05:02:02.125Z,2.58
2017-10-07T05:03:08.237Z,3.05
2017-10-07T05:04:15.302Z,3.00
2017-10-07T05:05:25.539Z,2.70
2017-10-07T05:06:34.925Z,2.37
2017-10-07T05:07:44.708Z,2.78
2017-10-07T05:08:51.372Z,2.25
2017-10-07T05:09:58.298Z,3.00
2017-10-07T05:11:08.446Z,2.70
2017-10-07T05:12:15.200Z,2.33
2017-10-07T05:13:22.128Z,2.53
2017-10-07T05:14:30.625Z,2.22
2017-10-07T05:15:36.780Z,2.15
2017-10-07T05:16:44.181Z,2.50
2017-10-07T05:17:53.041Z,2.60
2017-10-07T05:18:58.960Z,2.15
2017-10-07T05:20:05.440Z,2.30
2017-10-07T05:21:11.926Z,2.60
2017-10-07T05:22:18.160Z,1.95
2017-10-07T05:23:27.474Z,2.20
2017-10-07T05:24:35.077Z,2.53
2017-10-07T05:25:43.335Z,1.95
2017-10-07T05:26:53.711Z,2.12
2017-10-07T05:27:59.800Z,1.90
2017-10-07T05:29:08.110Z,1.98
2017-10-07T05:30:16.207Z,2.45
2017-10-07T05:31:22.754Z,2.10
2017-10-07T05:32:29.967Z,4.25
2017-10-07T05:33:39.078Z,2.20
2017-10-07T05:34:45.909Z,2.83
2017-10-07T05:35:54.217Z,2.20
2017-10-07T05:37:02.700Z,2.50
2017-10-07T05:38:11.324Z,2.92
2017-10-07T05:39:17.637Z,2.40
2017-10-07T05:40:25.010Z,2.30
2017-10-07T05:41:34.898Z,2.10
2017-10-07T05:42:45.310Z,2.47
2017-10-07T05:43:51.828Z,2.30
2017-10-07T05:44:58.934Z,2.70
2017-10-07T05:46:06.392Z,2.30
2017-10-07T05:47:14.288Z,2.12
2017-10-07T05:48:25.099Z,2.83
2017-10-07T05:49:31.835Z,2.42
2017-10-07T05:50:39.114Z,2.70
2017-10-07T05:51:48.954Z,1.75
2017-10-07T05:52:55.072Z,3.90
2017-10-07T05:54:01.983Z,1.70
2017-10-07T05:55:09.162Z,2.05
2017-10-07T05:56:17.662Z,2.50
2017-10-07T05:57:24.136Z,2.50
2017-10-07T05:58:30.775Z,3.08
2017-10-07T05:59:36.887Z,2.25
2017-10-07T06:00:42.984Z,2.33
2017-10-07T06:01:49.203Z,2.50
2017-10-07T06:02:55.261Z,2.20
2017-10-07T06:04:01.356Z,2.50
2017-10-07T06:05:07.479Z,2.20
2017-10-07T06:06:14.383Z,1.90
2017-10-07T06:07:22.071Z,1.95
2017-10-07T06:08:28.169Z,2.12
2017-10-07T06:09:33.539Z,2.53
2017-10-07T06:10:42.393Z,2.47
2017-10-07T06:11:48.532Z,2.03
2017-10-07T06:12:54.899Z,1.90
2017-10-07T06:14:00.620Z,2.10
2017-10-07T06:15:06.764Z,2.08
2017-10-07T06:16:12.869Z,1.95
2017-10-07T06:17:19.796Z,2.10
2017-10-07T06:18:25.928Z,1.80
2017-10-07T06:19:31.999Z,1.50
2017-10-07T06:20:39.703Z,1.58
2017-10-07T06:21:48.468Z,1.33
2017-10-07T06:22:55.229Z,2.00
2017-10-07T06:24:01.635Z,1.45
2017-10-07T06:25:09.882Z,1.50
2017-10-07T06:26:22.977Z,1.50
2017-10-07T06:27:32.385Z,1.37
2017-10-07T06:28:40.714Z,1.30
2017-10-07T06:29:47.883Z,1.50
2017-10-07T06:30:53.941Z,1.85
2017-10-07T06:32:00.035Z,1.25
2017-10-07T06:33:06.827Z,0.52
2017-10-07T06:34:13.670Z,1.80
2017-10-07T06:35:20.055Z,1.98
2017-10-07T06:36:28.343Z,1.15
2017-10-07T06:37:35.223Z,1.15
2017-10-07T06:38:41.897Z,1.50
2017-10-07T06:39:49.635Z,1.45
2017-10-07T06:40:58.246Z,1.40
2017-10-07T06:42:04.505Z,1.42
2017-10-07T06:43:12.160Z,1.48
2017-10-07T06:44:20.094Z,1.58
2017-10-07T06:45:30.569Z,1.60
2017-10-07T06:46:40.713Z,1.65
2017-10-07T06:47:48.228Z,2.03
2017-10-07T06:48:55.992Z,1.25
2017-10-07T06:50:06.042Z,1.60
2017-10-07T06:51:17.290Z,1.42
2017-10-07T06:52:24.253Z,1.40
2017-10-07T06:53:31.646Z,1.52
2017-10-07T06:54:45.081Z,1.35
2017-10-07T06:55:51.877Z,1.60
2017-10-07T06:56:58.993Z,1.73
2017-10-07T06:58:07.524Z,1.20
2017-10-07T06:59:18.298Z,1.40
2017-10-07T07:00:25.157Z,1.42
2017-10-07T07:01:31.388Z,1.70
2017-10-07T07:02:38.461Z,1.40
2017-10-07T07:03:44.882Z,1.40
2017-10-07T07:04:51.651Z,1.40
2017-10-07T07:05:58.264Z,1.60
2017-10-07T07:07:04.567Z,1.87
2017-10-07T07:08:11.026Z,1.45
2017-10-07T07:09:19.006Z,2.00
2017-10-07T07:10:25.760Z,1.23
2017-10-07T07:11:34.412Z,1.45
2017-10-07T07:12:41.305Z,1.70
2017-10-07T07:13:47.795Z,1.30
2017-10-07T07:14:53.865Z,1.60
2017-10-07T07:16:00.220Z,1.37
2017-10-07T07:17:07.957Z,1.80
2017-10-07T07:18:15.934Z,1.60
2017-10-07T07:19:22.095Z,1.75
2017-10-07T07:20:29.197Z,3.90
2017-10-07T07:21:38.614Z,12.25
2017-10-07T07:22:47.206Z,8.02
2017-10-07T07:23:54.585Z,6.22
2017-10-07T07:25:00.796Z,5.95
2017-10-07T07:26:07.088Z,7.12
2017-10-07T07:27:13.662Z,6.03
2017-10-07T07:28:21.149Z,6.47
2017-10-07T07:29:27.878Z,6.35
2017-10-07T07:30:34.774Z,4.00
2017-10-07T07:31:41.320Z,5.10
2017-10-07T07:32:47.934Z,6.15
2017-10-07T07:33:55.331Z,5.65
2017-10-07T07:35:02.466Z,2.90
2017-10-07T07:36:08.764Z,2.47
2017-10-07T07:37:16.606Z,2.50
2017-10-07T07:38:24.738Z,1.90
2017-10-07T07:39:31.895Z,2.03
2017-10-07T07:40:38.727Z,1.80
2017-10-07T07:41:48.615Z,3.92
2017-10-07T07:42:55.134Z,2.28
2017-10-07T07:44:03.003Z,2.55
2017-10-07T07:45:12.494Z,2.20
2017-10-07T07:46:19.979Z,2.12
2017-10-07T07:47:26.513Z,2.05
2017-10-07T07:48:34.754Z,2.20
2017-10-07T07:49:41.239Z,1.73
2017-10-07T07:50:48.321Z,1.80
2017-10-07T07:51:55.435Z,2.03
2017-10-07T07:53:03.990Z,1.98
2017-10-07T07:54:11.752Z,2.15
2017-10-07T07:55:19.654Z,1.80
2017-10-07T07:56:26.418Z,1.60
2017-10-07T07:57:35.074Z,2.08
2017-10-07T07:58:42.406Z,1.62
2017-10-07T07:59:49.273Z,1.70
2017-10-07T08:00:57.373Z,1.98
2017-10-07T08:02:05.061Z,2.35
2017-10-07T08:03:11.534Z,1.60
2017-10-07T08:04:18.761Z,1.92
2017-10-07T08:05:25.373Z,1.83
2017-10-07T08:06:31.680Z,2.03
2017-10-07T08:07:38.233Z,2.70
2017-10-07T08:08:45.622Z,2.20
2017-10-07T08:09:52.649Z,2.20
2017-10-07T08:10:59.539Z,2.12
2017-10-07T08:12:06.165Z,1.92
2017-10-07T08:13:12.632Z,1.80
2017-10-07T08:14:20.598Z,2.30
2017-10-07T08:15:28.108Z,2.62
2017-10-07T08:16:35.644Z,2.22
2017-10-07T08:17:42.065Z,2.30
2017-10-07T08:18:48.743Z,2.50
2017-10-07T08:19:57.188Z,2.90
2017-10-07T08:21:03.692Z,2.42
2017-10-07T08:22:11.072Z,2.10
2017-10-07T08:23:19.722Z,2.60
2017-10-07T08:24:26.812Z,2.42
2017-10-07T08:25:34.115Z,2.45
2017-10-07T08:26:40.290Z,1.85
2017-10-07T08:27:46.392Z,2.53
2017-10-07T08:28:56.424Z,2.60
2017-10-07T08:30:03.090Z,5.45
2017-10-07T08:31:09.236Z,4.50
2017-10-07T08:32:15.351Z,3.00
2017-10-07T08:33:22.163Z,2.15
2017-10-07T08:34:28.618Z,2.80
2017-10-07T08:35:34.701Z,2.47
2017-10-07T08:36:43.707Z,2.37
2017-10-07T08:37:50.030Z,2.10
2017-10-07T08:38:56.457Z,2.60
2017-10-07T08:40:05.227Z,1.77
2017-10-07T08:41:11.360Z,2.33
2017-10-07T08:42:17.523Z,2.25
2017-10-07T08:43:23.664Z,2.40
2017-10-07T08:44:33.011Z,2.05
2017-10-07T08:45:42.664Z,1.95
2017-10-07T08:46:48.770Z,2.30
2017-10-07T08:47:54.863Z,2.03
2017-10-07T08:49:01.647Z,2.05
2017-10-07T08:50:08.295Z,1.90
2017-10-07T08:51:14.695Z,2.40
2017-10-07T08:52:20.777Z,2.12
2017-10-07T08:53:26.868Z,2.70
2017-10-07T08:54:32.987Z,2.03
2017-10-07T08:55:40.235Z,2.47
2017-10-07T08:56:47.423Z,2.08
2017-10-07T08:57:53.520Z,1.70
2017-10-07T08:58:59.829Z,2.60
2017-10-07T09:00:05.760Z,1.80
2017-10-07T09:01:12.012Z,2.40
2017-10-07T09:02:20.711Z,2.25
2017-10-07T09:03:26.813Z,2.45
2017-10-07T09:04:34.882Z,1.85
2017-10-07T09:05:42.291Z,1.50
2017-10-07T09:06:50.208Z,2.37
2017-10-07T09:07:57.373Z,2.00
2017-10-07T09:09:04.786Z,1.80
2017-10-07T09:10:11.843Z,2.20
2017-10-07T09:11:19.040Z,2.17
2017-10-07T09:12:25.268Z,2.08
2017-10-07T09:13:31.377Z,2.33
2017-10-07T09:14:37.569Z,1.75
2017-10-07T09:15:43.924Z,2.00
2017-10-07T09:16:50.096Z,1.77
2017-10-07T09:17:57.345Z,1.73
2017-10-07T09:19:07.494Z,2.15
2017-10-07T09:20:17.701Z,1.95
2017-10-07T09:21:24.107Z,1.67
2017-10-07T09:22:30.246Z,2.35
2017-10-07T09:23:38.120Z,2.00
2017-10-07T09:24:44.268Z,2.60
2017-10-07T09:25:50.420Z,1.77
2017-10-07T09:26:58.035Z,2.00
2017-10-07T09:28:07.367Z,1.50
2017-10-07T09:29:13.717Z,2.15
2017-10-07T09:30:19.913Z,1.85
2017-10-07T09:31:26.870Z,1.70
2017-10-07T09:32:33.419Z,1.95
2017-10-07T09:33:39.535Z,2.25
2017-10-07T09:34:45.650Z,2.12
2017-10-07T09:35:51.929Z,2.20
2017-10-07T09:36:57.860Z,2.45
2017-10-07T09:38:04.242Z,3.25
2017-10-07T09:39:10.388Z,2.35
2017-10-07T09:40:16.482Z,2.00
2017-10-07T09:41:22.681Z,1.80
2017-10-07T09:42:28.645Z,2.55
2017-10-07T09:43:34.760Z,2.30
2017-10-07T09:44:41.078Z,2.15
2017-10-07T09:45:47.435Z,2.70
2017-10-07T09:46:53.500Z,1.80
2017-10-07T09:47:59.623Z,2.20
2017-10-07T09:49:06.472Z,2.05
2017-10-07T09:50:14.712Z,2.28
2017-10-07T09:51:20.803Z,2.03
2017-10-07T09:52:26.990Z,2.12
2017-10-07T09:53:33.091Z,1.60
2017-10-07T09:54:42.974Z,2.25
2017-10-07T09:55:49.303Z,1.85
2017-10-07T09:56:56.054Z,1.90
2017-10-07T09:58:04.991Z,2.17
2017-10-07T09:59:11.788Z,3.45
2017-10-07T10:00:17.888Z,1.90
2017-10-07T10:01:24.334Z,1.83
2017-10-07T10:02:33.260Z,1.40
2017-10-07T10:03:40.452Z,1.70
2017-10-07T10:04:46.355Z,1.73
2017-10-07T10:05:52.466Z,1.60
2017-10-07T10:06:58.626Z,1.83
2017-10-07T10:08:05.056Z,1.75
2017-10-07T10:09:11.112Z,1.70
2017-10-07T10:10:17.208Z,2.40
2017-10-07T10:11:23.281Z,1.45
2017-10-07T10:12:30.200Z,1.60
2017-10-07T10:13:37.272Z,2.42
2017-10-07T10:14:43.388Z,2.30
2017-10-07T10:15:49.859Z,1.60
2017-10-07T10:16:58.556Z,2.37
2017-10-07T10:18:04.860Z,1.60
2017-10-07T10:19:10.946Z,2.10
2017-10-07T10:20:17.214Z,1.75
2017-10-07T10:21:29.883Z,2.30
2017-10-07T10:22:36.013Z,2.30
2017-10-07T10:23:44.019Z,2.22
2017-10-07T10:24:52.197Z,1.83
2017-10-07T10:25:58.290Z,1.80
2017-10-07T10:27:05.278Z,1.83
2017-10-07T10:28:14.157Z,2.58
2017-10-07T10:29:24.230Z,1.90
2017-10-07T10:30:31.243Z,2.65
2017-10-07T10:31:37.349Z,2.20
2017-10-07T10:32:43.543Z,2.47
2017-10-07T10:33:49.654Z,2.30
2017-10-07T10:34:55.951Z,2.33
2017-10-07T10:36:02.079Z,1.83
2017-10-07T10:37:08.160Z,2.65
2017-10-07T10:38:14.304Z,2.17
2017-10-07T10:39:20.454Z,2.37
2017-10-07T10:40:26.578Z,2.50
2017-10-07T10:41:33.369Z,1.90
2017-10-07T10:42:40.041Z,1.90
2017-10-07T10:43:47.159Z,2.45
2017-10-07T10:44:52.970Z,2.45
2017-10-07T10:45:59.320Z,2.60
2017-10-07T10:47:06.348Z,2.42
2017-10-07T10:48:14.114Z,2.70
2017-10-07T10:49:20.183Z,2.55
2017-10-07T10:50:28.186Z,2.60
2017-10-07T10:51:35.256Z,2.80
2017-10-07T10:52:41.303Z,2.62
2017-10-07T10:53:47.678Z,2.53
2017-10-07T10:54:55.651Z,2.67
2017-10-07T10:56:01.818Z,2.42
2017-10-07T10:57:07.974Z,3.25
2017-10-07T10:58:14.342Z,3.33
2017-10-07T10:59:20.556Z,2.37
2017-10-07T11:00:26.635Z,2.60
2017-10-07T11:01:32.730Z,3.45
2017-10-07T11:02:38.659Z,2.40
2017-10-07T11:03:46.231Z,2.47
2017-10-07T11:04:53.360Z,3.60
2017-10-07T11:05:59.507Z,3.25
2017-10-07T11:07:05.633Z,2.75
2017-10-07T11:08:11.774Z,2.30
2017-10-07T11:09:17.891Z,2.65
2017-10-07T11:10:24.003Z,2.95
2017-10-07T11:11:30.970Z,3.60
2017-10-07T11:12:38.692Z,2.95
2017-10-07T11:13:46.690Z,3.42
2017-10-07T11:14:52.775Z,3.50
2017-10-07T11:15:58.884Z,3.70
2017-10-07T11:17:05.207Z,2.72
2017-10-07T11:18:11.416Z,3.65
2017-10-07T11:19:19.346Z,3.85
2017-10-07T11:20:26.423Z,4.10
2017-10-07T11:21:32.778Z,3.92
2017-10-07T11:22:43.718Z,3.33
2017-10-07T11:23:50.972Z,4.60
2017-10-07T11:24:57.134Z,4.05
2017-10-07T11:26:03.579Z,3.30
2017-10-07T11:27:13.190Z,4.03
2017-10-07T11:28:19.453Z,3.90
2017-10-07T11:29:25.663Z,4.12
2017-10-07T11:30:34.516Z,3.20
2017-10-07T11:31:40.639Z,3.05
2017-10-07T11:32:47.249Z,4.20
2017-10-07T11:33:54.580Z,3.80
2017-10-07T11:35:00.720Z,3.75
2017-10-07T11:36:06.873Z,3.72
2017-10-07T11:37:13.649Z,4.40
2017-10-07T11:38:20.788Z,3.35
2017-10-07T11:39:27.804Z,3.80
2017-10-07T11:40:34.602Z,3.67
2017-10-07T11:41:42.511Z,4.30
2017-10-07T11:42:49.244Z,3.97
2017-10-07T11:43:55.935Z,3.90
2017-10-07T11:45:04.007Z,3.80
2017-10-07T11:46:12.990Z,2.45
2017-10-07T11:47:19.112Z,3.28
2017-10-07T11:48:25.250Z,3.90
2017-10-07T11:49:31.314Z,3.70
2017-10-07T11:50:37.419Z,4.32
2017-10-07T11:51:43.657Z,3.42
2017-10-07T11:52:50.643Z,2.72
2017-10-07T11:53:56.789Z,3.25
2017-10-07T11:55:03.547Z,3.70
2017-10-07T11:56:09.678Z,3.60
2017-10-07T11:57:22.620Z,3.47
2017-10-07T11:58:28.938Z,3.12
2017-10-07T11:59:35.317Z,4.10
2017-10-07T12:00:43.267Z,4.68
2017-10-07T12:01:49.174Z,3.85
2017-10-07T12:02:55.299Z,4.07
2017-10-07T12:04:01.368Z,4.32
2017-10-07T12:05:10.558Z,2.90
2017-10-07T12:06:16.641Z,2.80
2017-10-07T12:07:22.827Z,2.95
2017-10-07T12:08:28.959Z,2.90
2017-10-07T12:09:35.066Z,3.25
2017-10-07T12:10:41.258Z,2.12
2017-10-07T12:11:49.255Z,2.40
2017-10-07T12:12:57.133Z,2.75
2017-10-07T12:14:04.153Z,2.45
2017-10-07T12:15:11.393Z,2.55
2017-10-07T12:16:18.570Z,2.50
2017-10-07T12:17:24.700Z,2.85
2017-10-07T12:18:31.142Z,2.50
2017-10-07T12:19:38.092Z,2.50
2017-10-07T12:20:48.423Z,2.78
2017-10-07T12:21:55.450Z,2.85
2017-10-07T12:23:01.358Z,3.50
2017-10-07T12:24:09.728Z,3.10
2017-10-07T12:25:15.837Z,2.65
2017-10-07T12:26:21.981Z,2.78
2017-10-07T12:27:31.994Z,2.50
2017-10-07T12:28:40.991Z,2.95
2017-10-07T12:29:48.310Z,2.75
2017-10-07T12:30:54.765Z,2.60
2017-10-07T12:32:03.581Z,2.70
2017-10-07T12:33:09.677Z,2.12
2017-10-07T12:34:15.810Z,2.58
2017-10-07T12:35:22.659Z,2.35
2017-10-07T12:36:28.746Z,9.75
2017-10-07T12:37:34.833Z,4.28
2017-10-07T12:38:41.101Z,2.10
2017-10-07T12:39:49.851Z,1.77
2017-10-07T12:40:56.767Z,1.80
2017-10-07T12:42:03.033Z,2.08
2017-10-07T12:43:10.059Z,2.00
2017-10-07T12:44:19.661Z,1.90
2017-10-07T12:45:26.367Z,1.92
2017-10-07T12:46:33.641Z,2.05
2017-10-07T12:47:40.378Z,1.90
2017-10-07T12:48:46.494Z,3.08
2017-10-07T12:49:52.955Z,2.20
2017-10-07T12:50:59.132Z,2.40
2017-10-07T12:52:05.957Z,2.15
2017-10-07T12:53:14.031Z,1.92
2017-10-07T12:54:20.104Z,1.80
2017-10-07T12:55:27.772Z,2.17
2017-10-07T12:56:34.794Z,2.00
2017-10-07T12:57:42.462Z,2.00
2017-10-07T12:58:51.405Z,2.25
2017-10-07T12:59:57.535Z,2.22
2017-10-07T13:01:03.694Z,2.42
2017-10-07T13:02:09.617Z,2.03
2017-10-07T13:03:15.748Z,3.95
2017-10-07T13:04:21.871Z,2.35
2017-10-07T13:05:29.122Z,2.20
2017-10-07T13:06:36.300Z,2.17
2017-10-07T13:07:42.407Z,2.30
2017-10-07T13:08:49.631Z,1.98
2017-10-07T13:09:55.782Z,2.60
2017-10-07T13:11:01.886Z,1.83
2017-10-07T13:12:08.034Z,2.05
2017-10-07T13:13:14.147Z,2.80
2017-10-07T13:14:20.519Z,2.00
2017-10-07T13:15:26.599Z,2.00
2017-10-07T13:16:33.609Z,2.37
2017-10-07T13:17:39.701Z,2.28
2017-10-07T13:18:46.136Z,2.22
2017-10-07T13:19:52.485Z,2.22
2017-10-07T13:20:58.572Z,3.45
2017-10-07T13:22:06.688Z,4.00
2017-10-07T13:23:13.846Z,5.20
2017-10-07T13:24:20.044Z,2.55
2017-10-07T13:25:26.910Z,2.62
2017-10-07T13:26:34.545Z,1.98
2017-10-07T13:27:41.113Z,2.87
2017-10-07T13:28:47.207Z,2.33
2017-10-07T13:29:53.317Z,2.15
2017-10-07T13:30:59.343Z,2.33
2017-10-07T13:32:05.458Z,2.62
2017-10-07T13:33:11.559Z,2.50
2017-10-07T13:34:18.519Z,2.28
2017-10-07T13:35:26.330Z,2.30
2017-10-07T13:36:34.390Z,2.60
2017-10-07T13:37:41.646Z,1.98
2017-10-07T13:38:48.346Z,2.33
2017-10-07T13:39:57.006Z,3.67
2017-10-07T13:41:03.174Z,2.70
2017-10-07T13:42:09.726Z,2.60
2017-10-07T13:43:17.260Z,2.45
2017-10-07T13:44:23.355Z,2.70
2017-10-07T13:45:31.262Z,2.58
2017-10-07T13:46:37.730Z,2.53
2017-10-07T13:47:43.920Z,2.10
2017-10-07T13:48:50.913Z,1.70
2017-10-07T13:49:57.018Z,3.25
2017-10-07T13:51:03.136Z,2.87
2017-10-07T13:52:09.297Z,2.40
2017-10-07T13:53:15.490Z,2.65
2017-10-07T13:54:23.669Z,2.42
2017-10-07T13:55:31.686Z,2.62
2017-10-07T13:56:37.569Z,2.67
2017-10-07T13:57:45.936Z,2.80
2017-10-07T13:58:52.074Z,3.33
2017-10-07T13:59:58.772Z,3.08
2017-10-07T14:01:05.827Z,2.90
2017-10-07T14:02:11.928Z,2.95
2017-10-07T14:03:18.952Z,2.62
2017-10-07T14:04:25.082Z,3.35
2017-10-07T14:05:31.283Z,3.08
2017-10-07T14:06:36.994Z,2.90
2017-10-07T14:07:43.097Z,3.50
2017-10-07T14:08:50.201Z,3.53
2017-10-07T14:09:58.883Z,3.30
2017-10-07T14:11:06.664Z,3.20
2017-10-07T14:12:12.758Z,3.05
2017-10-07T14:13:18.858Z,3.67
2017-10-07T14:14:24.954Z,3.58
2017-10-07T14:15:31.089Z,2.80
2017-10-07T14:16:37.879Z,3.55
2017-10-07T14:17:44.446Z,3.65
2017-10-07T14:18:55.687Z,4.00
2017-10-07T14:20:01.793Z,3.62
2017-10-07T14:21:07.901Z,4.00
2017-10-07T14:22:13.978Z,3.60
2017-10-07T14:23:20.117Z,4.05
2017-10-07T14:24:26.526Z,3.25
2017-10-07T14:25:32.608Z,4.30
2017-10-07T14:26:38.719Z,4.07
2017-10-07T14:27:44.927Z,3.60
2017-10-07T14:28:51.466Z,3.50
2017-10-07T14:30:01.180Z,3.97
2017-10-07T14:31:07.076Z,5.00
2017-10-07T14:32:14.363Z,4.43
2017-10-07T14:33:20.454Z,5.10
2017-10-07T14:34:26.570Z,3.90
2017-10-07T14:35:32.671Z,4.35
2017-10-07T14:36:38.753Z,3.83
2017-10-07T14:37:45.746Z,3.70
2017-10-07T14:38:51.808Z,3.97
2017-10-07T14:39:57.898Z,4.30
2017-10-07T14:41:04.065Z,4.35
2017-10-07T14:42:10.191Z,3.78
2017-10-07T14:43:16.303Z,4.30
2017-10-07T14:44:22.427Z,4.90
2017-10-07T14:45:28.532Z,4.70
2017-10-07T14:46:35.701Z,4.87
2017-10-07T14:47:42.078Z,4.70
2017-10-07T14:48:48.431Z,4.50
2017-10-07T14:49:58.672Z,5.10
2017-10-07T14:51:05.990Z,5.85
2017-10-07T14:52:12.071Z,5.57
2017-10-07T14:53:18.233Z,5.70
2017-10-07T14:54:24.362Z,5.05
2017-10-07T14:55:31.426Z,4.25
2017-10-07T14:56:39.337Z,5.28
2017-10-07T14:57:45.914Z,5.05
2017-10-07T14:58:51.987Z,5.43
2017-10-07T14:59:59.606Z,4.95
2017-10-07T15:01:05.720Z,4.93
2017-10-07T15:02:11.626Z,5.18